createdAt,value
2019-01-04T00:01:41.134Z,95.18
2019-01-04T00:06:46.768Z,95.50
2019-01-04T00:11:58.476Z,95.53
2019-01-04T00:17:03.879Z,95.46
2019-01-04T00:22:22.696Z,95.76
2019-01-04T00:27:27.823Z,96.05
2019-01-04T00:32:57.080Z,96.21
2019-01-04T00:38:03.084Z,96.02
2019-01-04T00:43:08.200Z,95.91
2019-01-04T00:48:13.489Z,96.05
2019-01-04T00:53:18.864Z,95.96
2019-01-04T00:59:03.740Z,95.72
2019-01-04T01:04:53.074Z,95.51
2019-01-04T01:10:33.652Z,96.00
2019-01-04T01:16:08.504Z,96.40
2019-01-04T01:21:50.600Z,96.42
2019-01-04T01:27:54.390Z,96.35
2019-01-04T01:33:33.810Z,96.61
2019-01-04T01:39:17.751Z,96.96
2019-01-04T01:44:54.562Z,97.33
2019-01-04T01:50:58.710Z,97.32
2019-01-04T01:56:04.320Z,97.34
2019-01-04T02:01:09.414Z,97.55
2019-01-04T02:06:14.490Z,97.36
2019-01-04T02:11:20.237Z,96.84
2019-01-04T02:16:25.593Z,97.20
2019-01-04T02:21:30.729Z,97.83
2019-01-04T02:26:35.831Z,97.44
2019-01-04T02:31:41.426Z,98.17
2019-01-04T02:36:46.874Z,98.45
2019-01-04T02:41:52.140Z,98.85
2019-01-04T02:46:57.242Z,99.12
2019-01-04T02:52:02.739Z,99.12
2019-01-04T02:57:07.792Z,100.00
2019-01-04T03:02:12.842Z,100.00
2019-01-04T03:07:18.307Z,100.00
2019-01-04T03:12:23.344Z,100.00
2019-01-04T03:17:28.453Z,100.00
2019-01-04T03:22:33.532Z,100.00
2019-01-04T03:27:38.739Z,100.00
2019-01-04T03:32:43.759Z,100.00
2019-01-04T03:37:48.742Z,100.00
2019-01-04T03:42:53.787Z,100.00
2019-01-04T03:48:01.099Z,100.00
2019-01-04T03:53:06.203Z,100.00
2019-01-04T03:58:12.625Z,100.00
2019-01-04T04:03:17.735Z,100.00
2019-01-04T04:08:22.850Z,100.00
2019-01-04T04:13:28.172Z,100.00
2019-01-04T04:18:33.218Z,100.00
2019-01-04T04:23:38.365Z,100.00
2019-01-04T04:28:44.185Z,100.00
2019-01-04T04:33:49.221Z,100.00
2019-01-04T04:38:54.359Z,100.00
2019-01-04T04:43:59.471Z,100.00
2019-01-04T04:49:04.528Z,100.00
2019-01-04T04:54:09.691Z,100.00
2019-01-04T04:59:14.851Z,100.00
2019-01-04T05:04:20.613Z,100.00
2019-01-04T05:09:25.657Z,100.00
2019-01-04T05:14:30.804Z,100.00
2019-01-04T05:19:37.149Z,100.00
2019-01-04T05:24:42.195Z,100.00
2019-01-04T05:29:47.222Z,100.00
2019-01-04T05:34:52.716Z,100.00
2019-01-04T05:39:57.719Z,100.00
2019-01-04T05:45:02.767Z,100.00
2019-01-04T05:50:08.204Z,100.00
2019-01-04T05:55:13.391Z,100.00
2019-01-04T06:00:18.453Z,100.00
2019-01-04T06:05:24.427Z,100.00
2019-01-04T06:10:29.530Z,100.00
2019-01-04T06:15:34.544Z,99.85
2019-01-04T06:20:40.896Z,98.88
2019-01-04T06:25:46.053Z,98.73
2019-01-04T06:30:51.343Z,97.77
2019-01-04T06:36:00.602Z,97.53
2019-01-04T06:41:05.954Z,97.05
2019-01-04T06:46:13.353Z,96.35
2019-01-04T06:51:18.877Z,96.02
2019-01-04T06:56:24.417Z,95.16
2019-01-04T07:01:29.605Z,94.68
2019-01-04T07:06:34.767Z,93.50
2019-01-04T07:11:40.305Z,92.23
2019-01-04T07:16:45.431Z,90.62
2019-01-04T07:21:50.586Z,90.00
2019-01-04T07:26:55.953Z,88.76
2019-01-04T07:32:03.299Z,87.56
2019-01-04T07:37:08.693Z,87.19
2019-01-04T07:42:14.347Z,86.68
2019-01-04T07:47:19.374Z,87.20
2019-01-04T07:52:25.073Z,86.25
2019-01-04T07:57:30.479Z,85.58
2019-01-04T08:02:49.776Z,85.90
2019-01-04T08:07:55.212Z,86.68
2019-01-04T08:13:00.890Z,86.40
2019-01-04T08:18:06.253Z,86.86
2019-01-04T08:23:13.401Z,86.48
2019-01-04T08:28:18.441Z,86.66
2019-01-04T08:33:26.365Z,86.47
2019-01-04T08:38:32.779Z,86.57
2019-01-04T08:43:38.449Z,87.67
2019-01-04T08:48:44.421Z,87.81
2019-01-04T08:53:57.442Z,87.28
2019-01-04T08:59:02.992Z,87.03
2019-01-04T09:04:08.545Z,86.48
2019-01-04T09:09:14.105Z,85.94
2019-01-04T09:14:19.335Z,85.29
2019-01-04T09:19:28.197Z,85.56
2019-01-04T09:24:33.881Z,85.25
2019-01-04T09:29:39.021Z,84.91
2019-01-04T09:34:44.151Z,85.11
2019-01-04T09:39:49.281Z,85.55
2019-01-04T09:44:54.565Z,85.99
2019-01-04T09:50:00.211Z,86.44
2019-01-04T09:55:05.555Z,87.23
2019-01-04T10:00:14.073Z,87.80
2019-01-04T10:05:19.253Z,88.33
2019-01-04T10:10:24.465Z,88.50
2019-01-04T10:15:29.513Z,89.04
2019-01-04T10:20:34.667Z,89.59
2019-01-04T10:25:39.769Z,90.16
2019-01-04T10:30:45.143Z,91.12
2019-01-04T10:35:50.251Z,92.06
2019-01-04T10:40:55.423Z,92.21
2019-01-04T10:46:01.037Z,92.71
2019-01-04T10:51:06.202Z,92.84
2019-01-04T10:56:11.416Z,93.07
2019-01-04T11:01:16.518Z,93.53
2019-01-04T11:06:21.706Z,93.68
2019-01-04T11:11:27.054Z,93.55
2019-01-04T11:16:32.839Z,93.33
2019-01-04T11:21:39.485Z,93.34
2019-01-04T11:26:51.928Z,93.21
2019-01-04T11:32:10.333Z,93.27
2019-01-04T11:38:07.713Z,93.65
2019-01-04T11:44:06.748Z,94.70
2019-01-04T11:50:02.304Z,94.85
2019-01-04T11:55:07.327Z,94.52
2019-01-04T12:00:12.989Z,94.83
2019-01-04T12:05:18.411Z,96.46
2019-01-04T12:10:23.511Z,98.91
2019-01-04T12:15:28.593Z,100.00
2019-01-04T12:20:33.959Z,100.00
2019-01-04T12:25:39.012Z,100.00
2019-01-04T12:30:44.111Z,100.00
2019-01-04T12:35:49.440Z,100.00
2019-01-04T12:40:54.696Z,100.00
2019-01-04T12:45:59.979Z,100.00
2019-01-04T12:51:05.733Z,100.00
2019-01-04T12:56:11.209Z,100.00
2019-01-04T13:01:21.575Z,100.00
2019-01-04T13:06:26.693Z,100.00
2019-01-04T13:11:31.933Z,100.00
2019-01-04T13:16:37.511Z,100.00
2019-01-04T13:21:42.961Z,100.00
2019-01-04T13:26:48.461Z,100.00
2019-01-04T13:32:07.069Z,100.00
2019-01-04T13:37:12.246Z,100.00
2019-01-04T13:42:17.841Z,100.00
2019-01-04T13:47:23.319Z,100.00
2019-01-04T13:52:28.947Z,100.00
2019-01-04T13:57:34.124Z,100.00
2019-01-04T14:02:44.346Z,100.00
2019-01-04T14:07:49.633Z,100.00
2019-01-04T14:12:54.801Z,100.00
2019-01-04T14:18:00.774Z,100.00
2019-01-04T14:23:06.579Z,100.00
2019-01-04T14:28:12.181Z,100.00
2019-01-04T14:33:35.339Z,100.00
2019-01-04T14:38:41.015Z,100.00
2019-01-04T14:43:46.373Z,100.00
2019-01-04T14:48:51.647Z,100.00
2019-01-04T14:53:56.749Z,100.00
2019-01-04T14:59:02.072Z,100.00
2019-01-04T15:04:07.504Z,100.00
2019-01-04T15:09:12.727Z,100.00
2019-01-04T15:14:17.917Z,100.00
2019-01-04T15:19:23.073Z,100.00
2019-01-04T15:24:28.428Z,100.00
2019-01-04T15:29:34.622Z,100.00
2019-01-04T15:34:39.900Z,100.00
2019-01-04T15:39:45.178Z,100.00
2019-01-04T15:44:50.393Z,100.00
2019-01-04T15:49:55.553Z,100.00
2019-01-04T15:55:00.725Z,100.00
2019-01-04T16:00:07.856Z,100.00
2019-01-04T16:05:13.134Z,100.00
2019-01-04T16:10:18.726Z,100.00
2019-01-04T16:15:24.206Z,100.00
2019-01-04T16:20:29.490Z,100.00
2019-01-04T16:25:34.523Z,100.00
2019-01-04T16:30:40.158Z,100.00
2019-01-04T16:35:45.334Z,100.00
2019-01-04T16:40:50.582Z,100.00
2019-01-04T16:45:55.737Z,100.00
2019-01-04T16:51:01.887Z,100.00
2019-01-04T16:56:07.230Z,100.00
2019-01-04T17:01:12.498Z,100.00
2019-01-04T17:06:17.764Z,100.00
2019-01-04T17:11:23.113Z,100.00
2019-01-04T17:16:28.811Z,100.00
2019-01-04T17:21:34.106Z,100.00
2019-01-04T17:26:39.800Z,100.00
2019-01-04T17:31:45.317Z,100.00
2019-01-04T17:36:50.780Z,100.00
2019-01-04T17:42:05.272Z,100.00
2019-01-04T17:47:10.838Z,100.00
2019-01-04T17:52:16.198Z,100.00
2019-01-04T17:57:22.004Z,100.00
2019-01-04T18:02:27.200Z,100.00
2019-01-04T18:07:32.800Z,100.00
2019-01-04T18:12:38.768Z,100.00
2019-01-04T18:17:44.680Z,100.00
2019-01-04T18:22:49.918Z,100.00
2019-01-04T18:27:55.279Z,100.00
2019-01-04T18:33:01.018Z,100.00
2019-01-04T18:38:06.298Z,100.00
2019-01-04T18:43:12.289Z,100.00
2019-01-04T18:48:17.748Z,100.00
2019-01-04T18:53:24.005Z,100.00
2019-01-04T18:58:29.578Z,100.00
2019-01-04T19:03:34.841Z,100.00
2019-01-04T19:08:40.231Z,100.00
2019-01-04T19:13:46.240Z,100.00
2019-01-04T19:18:52.790Z,100.00
2019-01-04T19:23:58.112Z,100.00
2019-01-04T19:29:05.200Z,100.00
2019-01-04T19:34:15.720Z,100.00
2019-01-04T19:39:20.863Z,100.00
2019-01-04T19:44:26.218Z,100.00
2019-01-04T19:49:31.838Z,100.00
2019-01-04T19:54:37.750Z,100.00
2019-01-04T19:59:44.396Z,100.00
2019-01-04T20:04:49.809Z,100.00
2019-01-04T20:10:48.630Z,100.00
2019-01-04T20:16:36.132Z,100.00
2019-01-04T20:21:59.210Z,100.00
2019-01-04T20:27:23.608Z,100.00
2019-01-04T20:32:53.678Z,100.00
2019-01-04T20:38:30.070Z,100.00
2019-01-04T20:44:00.896Z,100.00
2019-01-04T20:49:23.969Z,100.00
2019-01-04T20:54:47.658Z,100.00
2019-01-04T21:00:13.216Z,100.00
2019-01-04T21:05:42.824Z,100.00
2019-01-04T21:11:22.339Z,100.00
2019-01-04T21:16:45.432Z,100.00
2019-01-04T21:28:30.438Z,100.00
2019-01-04T21:33:53.654Z,100.00
2019-01-04T21:39:20.844Z,100.00
2019-01-04T21:44:57.078Z,100.00
2019-01-04T21:50:20.430Z,100.00
2019-01-04T21:55:42.958Z,100.00
2019-01-04T22:01:25.896Z,100.00
2019-01-04T22:06:52.802Z,100.00
2019-01-04T22:12:19.840Z,100.00
2019-01-04T22:17:45.668Z,100.00
2019-01-04T22:23:30.150Z,100.00
2019-01-04T22:29:00.546Z,100.00
2019-01-04T22:34:32.906Z,100.00
2019-01-04T22:40:07.702Z,100.00
2019-01-04T22:45:27.395Z,100.00
2019-01-04T22:50:50.361Z,100.00
2019-01-04T22:56:18.640Z,100.00
2019-01-04T23:01:59.780Z,100.00
2019-01-04T23:07:41.980Z,100.00
2019-01-04T23:13:15.887Z,100.00
2019-01-04T23:18:55.296Z,100.00
2019-01-04T23:24:18.264Z,100.00
2019-01-04T23:29:53.458Z,100.00
2019-01-04T23:35:18.409Z,100.00
2019-01-04T23:40:57.780Z,100.00
2019-01-04T23:46:27.370Z,100.00
2019-01-04T23:51:54.288Z,100.00
2019-01-04T23:57:24.167Z,100.00
